Terminal Aerodrome Forecast
Issued by NWS

Home | Current Version | Previous Version | Text Only | Print | Product List | Glossary On
Versions: 1 2 3 4 5 6 7 8 9 10 11 12
538
FTUS41 KPBZ 102320
TAFBVI
TAF
KBVI 102320Z 1100/1124 22008KT P6SM BKN050
     FM110500 24008KT P6SM VCSH OVC025
     FM110900 27010KT P6SM OVC015
     FM111800 22006KT P6SM BKN070
      AMD NOT SKED 1102/1112=

USA.gov is the U.S. government's official web portal to all federal, state and local government web resources and services.